createdAt,value
2022-09-14T00:01:27.170Z,94418.69
2022-09-14T00:04:06.833Z,94427.50
2022-09-14T00:06:34.063Z,94434.69
2022-09-14T00:09:01.324Z,94447.53
2022-09-14T00:11:30.166Z,94446.53
2022-09-14T00:13:58.374Z,94442.91
2022-09-14T00:16:34.750Z,94431.50
2022-09-14T00:19:06.789Z,94428.50
2022-09-14T00:21:35.757Z,94421.88
2022-09-14T00:24:03.395Z,94427.09
2022-09-14T00:26:30.070Z,94421.88
2022-09-14T00:28:58.935Z,94413.06
2022-09-14T00:31:26.835Z,94409.44
2022-09-14T00:33:54.157Z,94405.03
2022-09-14T00:36:28.478Z,94409.06
2022-09-14T00:39:00.725Z,94390.63
2022-09-14T00:41:32.086Z,94381.63
2022-09-14T00:44:04.286Z,94381.00
2022-09-14T00:46:47.280Z,94376.19
2022-09-14T00:49:26.628Z,94376.56
2022-09-14T00:52:03.900Z,94368.16
2022-09-14T00:54:31.200Z,94359.94
2022-09-14T00:57:01.227Z,94368.78
2022-09-14T00:59:31.709Z,94367.41
2022-09-14T01:01:58.621Z,94366.19
2022-09-14T01:04:25.277Z,94357.56
2022-09-14T01:07:00.936Z,94357.38
2022-09-14T01:09:49.896Z,94347.34
2022-09-14T01:12:56.828Z,94350.34
2022-09-14T01:15:35.552Z,94347.75
2022-09-14T01:18:12.751Z,94336.16
2022-09-14T01:20:41.594Z,94342.75
2022-09-14T01:23:27.675Z,94343.16
2022-09-14T01:26:06.349Z,94333.31
2022-09-14T01:28:39.323Z,94336.91
2022-09-14T01:31:13.356Z,94310.28
2022-09-14T01:33:47.819Z,94310.06
2022-09-14T01:36:16.569Z,94316.47
2022-09-14T01:38:52.513Z,94315.09
2022-09-14T01:41:23.054Z,94324.72
2022-09-14T01:43:55.091Z,94323.31
2022-09-14T01:46:26.967Z,94325.75
2022-09-14T01:48:59.678Z,94324.91
2022-09-14T01:51:33.774Z,94313.13
2022-09-14T01:54:20.007Z,94318.91
2022-09-14T01:56:58.269Z,94320.31
2022-09-14T01:59:33.741Z,94326.72
2022-09-14T02:02:03.258Z,94324.50
2022-09-14T02:04:42.543Z,94320.91
2022-09-14T02:07:09.504Z,94326.31
2022-09-14T02:09:36.568Z,94332.34
2022-09-14T02:12:04.049Z,94337.34
2022-09-14T02:14:31.224Z,94329.13
2022-09-14T02:16:58.206Z,94328.94
2022-09-14T02:19:26.749Z,94329.53
2022-09-14T02:21:53.633Z,94325.94
2022-09-14T02:24:20.717Z,94315.91
2022-09-14T02:26:51.294Z,94308.44
2022-09-14T02:29:17.933Z,94302.22
2022-09-14T02:31:50.527Z,94298.03
2022-09-14T02:34:29.139Z,94287.22
2022-09-14T02:36:58.433Z,94282.22
2022-09-14T02:39:43.358Z,94277.56
2022-09-14T02:42:54.566Z,94276.59
2022-09-14T02:45:42.206Z,94279.44
2022-09-14T02:48:27.408Z,94279.22
2022-09-14T02:51:25.791Z,94284.03
2022-09-14T02:54:01.065Z,94282.47
2022-09-14T02:56:29.147Z,94277.25
2022-09-14T02:58:56.817Z,94273.66
2022-09-14T03:01:24.462Z,94266.03
2022-09-14T03:03:51.165Z,94261.41
2022-09-14T03:06:17.784Z,94261.84
2022-09-14T03:08:44.469Z,94261.84
2022-09-14T03:11:11.803Z,94260.00
2022-09-14T03:13:38.861Z,94262.00
2022-09-14T03:16:12.107Z,94252.41
2022-09-14T03:18:39.955Z,94260.22
2022-09-14T03:21:09.036Z,94257.03
2022-09-14T03:23:37.840Z,94256.00
2022-09-14T03:26:12.838Z,94263.22
2022-09-14T03:28:39.844Z,94267.78
2022-09-14T03:31:09.646Z,94261.38
2022-09-14T03:33:36.919Z,94263.34
2022-09-14T03:36:16.445Z,94265.13
2022-09-14T03:38:48.094Z,94257.53
2022-09-14T03:41:15.510Z,94259.06
2022-09-14T03:43:43.306Z,94258.06
2022-09-14T03:46:16.528Z,94260.09
2022-09-14T03:48:44.157Z,94265.50
2022-09-14T03:51:12.886Z,94263.09
2022-09-14T03:53:41.188Z,94273.13
2022-09-14T03:56:09.277Z,94267.88
2022-09-14T03:58:35.943Z,94272.09
2022-09-14T04:01:11.116Z,94270.44
2022-09-14T04:03:38.203Z,94270.03
2022-09-14T04:06:05.813Z,94273.69
2022-09-14T04:08:37.730Z,94269.28
2022-09-14T04:11:09.994Z,94272.09
2022-09-14T04:13:37.171Z,94265.44
2022-09-14T04:16:04.433Z,94273.09
2022-09-14T04:18:31.380Z,94267.50
2022-09-14T04:21:02.455Z,94270.53
2022-09-14T04:23:36.528Z,94262.88
2022-09-14T04:26:17.378Z,94256.88
2022-09-14T04:28:44.157Z,94252.47
2022-09-14T04:31:12.745Z,94241.81
2022-09-14T04:33:41.662Z,94251.63
2022-09-14T04:36:16.708Z,94260.44
2022-09-14T04:38:44.147Z,94253.44
2022-09-14T04:41:13.286Z,94249.44
2022-09-14T04:43:40.189Z,94259.63
2022-09-14T04:46:15.323Z,94244.81
2022-09-14T04:48:42.493Z,94248.81
2022-09-14T04:51:17.062Z,94251.63
2022-09-14T04:53:45.457Z,94254.03
2022-09-14T04:56:13.774Z,94239.59
2022-09-14T04:58:50.712Z,94239.78
2022-09-14T05:01:21.140Z,94240.94
2022-09-14T05:03:48.243Z,94230.78
2022-09-14T05:06:20.669Z,94237.75
2022-09-14T05:08:48.048Z,94244.47
2022-09-14T05:11:17.467Z,94237.00
2022-09-14T05:13:49.499Z,94244.25
2022-09-14T05:16:18.026Z,94240.78
2022-09-14T05:18:45.077Z,94239.13
2022-09-14T05:21:15.582Z,94240.59
2022-09-14T05:23:42.470Z,94240.50
2022-09-14T05:26:09.462Z,94234.19
2022-09-14T05:28:36.515Z,94234.91
2022-09-14T05:31:08.327Z,94227.28
2022-09-14T05:33:35.567Z,94232.28
2022-09-14T05:36:04.505Z,94225.25
2022-09-14T05:38:32.327Z,94223.69
2022-09-14T05:40:59.009Z,94218.63
2022-09-14T05:43:27.628Z,94221.72
2022-09-14T05:45:54.304Z,94225.38
2022-09-14T05:48:21.124Z,94237.13
2022-09-14T05:50:47.767Z,94241.69
2022-09-14T05:53:14.330Z,94248.53
2022-09-14T05:55:40.875Z,94248.00
2022-09-14T05:58:07.472Z,94253.81
2022-09-14T06:00:34.067Z,94259.84
2022-09-14T06:03:00.682Z,94266.00
2022-09-14T06:05:28.218Z,94262.13
2022-09-14T06:07:55.178Z,94256.16
2022-09-14T06:10:22.077Z,94266.88
2022-09-14T06:12:51.235Z,94267.69
2022-09-14T06:15:24.529Z,94267.75
2022-09-14T06:17:51.092Z,94258.78
2022-09-14T06:20:18.848Z,94259.81
2022-09-14T06:22:45.431Z,94276.22
2022-09-14T06:25:12.018Z,94283.75
2022-09-14T06:27:38.540Z,94271.75
2022-09-14T06:30:05.699Z,94288.59
2022-09-14T06:32:32.349Z,94283.75
2022-09-14T06:34:58.961Z,94290.56
2022-09-14T06:37:25.634Z,94288.44
2022-09-14T06:39:52.271Z,94288.09
2022-09-14T06:42:18.852Z,94267.91
2022-09-14T06:44:51.365Z,94260.53
2022-09-14T06:47:17.924Z,94252.75
2022-09-14T06:49:44.463Z,94243.31
2022-09-14T06:52:11.064Z,94241.03
2022-09-14T06:54:38.544Z,94235.59
2022-09-14T06:57:06.450Z,94224.25
2022-09-14T06:59:33.020Z,94219.91
2022-09-14T07:01:59.859Z,94223.88
2022-09-14T07:04:26.614Z,94217.16
2022-09-14T07:06:53.184Z,94236.56
2022-09-14T07:09:19.822Z,94230.03
2022-09-14T07:11:46.730Z,94224.81
2022-09-14T07:14:13.295Z,94233.56
2022-09-14T07:16:40.883Z,94227.19
2022-09-14T07:19:11.097Z,94225.34
2022-09-14T07:21:37.987Z,94224.94
2022-09-14T07:24:04.904Z,94230.50
2022-09-14T07:26:35.939Z,94237.00
2022-09-14T07:29:03.872Z,94238.69
2022-09-14T07:31:32.123Z,94241.00
2022-09-14T07:34:04.183Z,94246.72
2022-09-14T07:36:35.053Z,94246.09
2022-09-14T07:39:04.941Z,94252.16
2022-09-14T07:41:34.154Z,94250.78
2022-09-14T07:44:04.544Z,94258.63
2022-09-14T07:46:37.161Z,94260.28
2022-09-14T07:49:04.885Z,94260.91
2022-09-14T07:51:32.398Z,94257.28
2022-09-14T07:54:00.775Z,94254.38
2022-09-14T07:56:27.765Z,94268.13
2022-09-14T07:59:11.591Z,94277.22
2022-09-14T08:01:43.599Z,94269.88
2022-09-14T08:04:10.390Z,94295.22
2022-09-14T08:06:37.319Z,94296.13
2022-09-14T08:09:08.445Z,94288.19
2022-09-14T08:11:35.797Z,94278.38
2022-09-14T08:14:07.336Z,94275.03
2022-09-14T08:16:34.868Z,94278.59
2022-09-14T08:19:06.922Z,94268.09
2022-09-14T08:21:35.667Z,94266.09
2022-09-14T08:24:04.210Z,94266.34
2022-09-14T08:26:31.339Z,94259.72
2022-09-14T08:29:02.134Z,94263.97
2022-09-14T08:31:28.788Z,94275.84
2022-09-14T08:34:00.891Z,94276.41
2022-09-14T08:36:29.961Z,94277.56
2022-09-14T08:38:56.982Z,94286.97
2022-09-14T08:41:26.442Z,94290.97
2022-09-14T08:43:53.439Z,94288.81
2022-09-14T08:46:25.618Z,94281.28
2022-09-14T08:48:53.384Z,94284.94
2022-09-14T08:51:20.020Z,94296.94
2022-09-14T08:53:46.809Z,94300.44
2022-09-14T08:56:18.439Z,94291.50
2022-09-14T08:59:00.752Z,94306.91
2022-09-14T09:02:19.852Z,94317.50
2022-09-14T09:05:11.443Z,94326.81
2022-09-14T09:07:52.590Z,94320.81
2022-09-14T09:10:20.656Z,94317.88
2022-09-14T09:12:53.750Z,94323.19
2022-09-14T09:15:34.020Z,94336.88
2022-09-14T09:18:09.620Z,94355.41
2022-09-14T09:20:42.754Z,94338.84
2022-09-14T09:23:30.284Z,94330.72
2022-09-14T09:26:12.605Z,94325.69
2022-09-14T09:28:46.397Z,94334.78
2022-09-14T09:31:15.078Z,94338.53
2022-09-14T09:34:25.966Z,94341.31
2022-09-14T09:36:53.577Z,94335.38
2022-09-14T09:39:20.780Z,94339.78
2022-09-14T09:41:57.647Z,94339.00
2022-09-14T09:46:53.234Z,94332.03
2022-09-14T09:49:29.809Z,94331.88
2022-09-14T09:51:57.004Z,94325.00
2022-09-14T09:54:30.015Z,94313.56
2022-09-14T09:57:01.254Z,94308.34
2022-09-14T09:59:48.594Z,94301.72
2022-09-14T10:02:31.133Z,94297.81
2022-09-14T10:05:21.431Z,94303.47
2022-09-14T10:07:50.744Z,94306.81
2022-09-14T10:10:21.181Z,94293.97
2022-09-14T10:12:50.964Z,94300.97
2022-09-14T10:15:28.363Z,94297.72
2022-09-14T10:18:15.282Z,94291.19
2022-09-14T10:20:53.973Z,94297.84
2022-09-14T10:23:20.594Z,94283.56
2022-09-14T10:25:49.088Z,94273.50
2022-09-14T10:32:00.003Z,94246.25
2022-09-14T10:34:27.151Z,94234.09
2022-09-14T10:37:05.107Z,94233.25
2022-09-14T10:39:56.737Z,94236.94
2022-09-14T10:42:43.167Z,94236.75
2022-09-14T10:45:22.339Z,94232.16
2022-09-14T10:48:19.179Z,94218.38
2022-09-14T10:50:59.452Z,94221.72
2022-09-14T10:53:53.567Z,94217.78
2022-09-14T10:56:54.063Z,94211.28
2022-09-14T10:59:45.908Z,94224.19
2022-09-14T11:02:34.515Z,94225.41
2022-09-14T11:05:19.920Z,94220.97
2022-09-14T11:07:49.582Z,94220.56
2022-09-14T11:10:22.567Z,94205.94
2022-09-14T11:13:14.491Z,94210.41
2022-09-14T11:15:41.230Z,94202.31
2022-09-14T11:18:17.244Z,94198.84
2022-09-14T11:20:59.089Z,94197.00
2022-09-14T11:23:41.306Z,94192.53
2022-09-14T11:26:21.297Z,94188.38
2022-09-14T11:29:17.140Z,94186.31
2022-09-14T11:32:19.771Z,94189.16
2022-09-14T11:35:22.334Z,94193.69
2022-09-14T11:37:55.461Z,94180.69
2022-09-14T11:40:25.016Z,94168.66
2022-09-14T11:43:03.857Z,94169.09
2022-09-14T11:45:45.016Z,94167.78
2022-09-14T11:48:42.793Z,94152.06
2022-09-14T11:51:22.705Z,94141.13
2022-09-14T11:53:50.851Z,94145.38
2022-09-14T11:56:29.419Z,94152.00
2022-09-14T11:58:58.975Z,94145.16
2022-09-14T12:01:33.049Z,94143.06
2022-09-14T12:04:12.107Z,94157.56
2022-09-14T12:06:38.665Z,94149.72
2022-09-14T12:09:14.205Z,94140.41
2022-09-14T12:11:42.400Z,94153.03
2022-09-14T12:14:29.996Z,94150.53
2022-09-14T12:17:35.636Z,94154.53
2022-09-14T12:20:42.840Z,94154.00
2022-09-14T12:23:38.568Z,94157.94
2022-09-14T12:26:11.580Z,94145.38
2022-09-14T12:28:42.799Z,94153.03
2022-09-14T12:31:28.766Z,94160.31
2022-09-14T12:34:37.080Z,94165.72
2022-09-14T12:37:25.525Z,94167.81
2022-09-14T12:40:13.034Z,94173.78
2022-09-14T12:42:40.094Z,94171.00
2022-09-14T12:45:44.232Z,94172.34
2022-09-14T12:48:10.906Z,94158.94
2022-09-14T12:50:40.505Z,94156.34
2022-09-14T12:53:22.270Z,94153.41
2022-09-14T12:56:03.795Z,94150.44
2022-09-14T12:58:59.864Z,94151.97
2022-09-14T13:01:36.548Z,94146.72
2022-09-14T13:04:05.047Z,94140.38
2022-09-14T13:06:46.414Z,94139.09
2022-09-14T13:09:24.023Z,94128.00
2022-09-14T13:11:56.992Z,94122.97
2022-09-14T13:14:28.372Z,94132.47
2022-09-14T13:16:56.565Z,94124.31
2022-09-14T13:19:29.577Z,94120.09
2022-09-14T13:21:58.890Z,94121.94
2022-09-14T13:24:25.774Z,94121.94
2022-09-14T13:26:56.196Z,94126.22
2022-09-14T13:29:24.681Z,94120.88
2022-09-14T13:31:51.475Z,94126.75
2022-09-14T13:34:28.577Z,94120.28
2022-09-14T13:36:57.153Z,94127.75
2022-09-14T13:39:35.855Z,94131.22
2022-09-14T13:42:03.797Z,94121.72
2022-09-14T13:44:36.588Z,94121.19
2022-09-14T13:47:05.677Z,94119.31
2022-09-14T13:49:34.842Z,94121.41
2022-09-14T13:53:00.561Z,94122.72
2022-09-14T13:55:33.770Z,94136.81
2022-09-14T13:58:15.272Z,94127.97
2022-09-14T14:00:54.014Z,94135.63
2022-09-14T14:03:26.336Z,94138.84
2022-09-14T14:05:53.041Z,94142.00
2022-09-14T14:08:32.695Z,94134.16
2022-09-14T14:11:03.454Z,94139.41
2022-09-14T14:13:31.884Z,94133.03
2022-09-14T14:16:23.006Z,94142.28
2022-09-14T14:18:55.851Z,94131.38
2022-09-14T14:21:22.519Z,94137.13
2022-09-14T14:24:12.255Z,94135.75
2022-09-14T14:26:48.319Z,94135.38
2022-09-14T14:29:16.443Z,94143.47
2022-09-14T14:31:44.147Z,94139.09
2022-09-14T14:34:18.900Z,94138.25
2022-09-14T14:36:47.219Z,94135.44
2022-09-14T14:39:14.337Z,94132.28
2022-09-14T14:41:41.518Z,94135.28
2022-09-14T14:44:16.980Z,94137.19
2022-09-14T14:46:45.604Z,94144.84
2022-09-14T14:49:14.864Z,94143.28
2022-09-14T14:51:41.855Z,94142.63
2022-09-14T14:54:10.364Z,94149.09
2022-09-14T14:56:40.467Z,94142.38
2022-09-14T14:59:21.975Z,94138.63
2022-09-14T15:01:49.900Z,94132.44
2022-09-14T15:04:18.907Z,94128.31
2022-09-14T15:06:46.518Z,94141.09
2022-09-14T15:09:18.395Z,94141.22
2022-09-14T15:11:45.554Z,94147.69
2022-09-14T15:14:17.032Z,94158.28
2022-09-14T15:16:45.024Z,94168.69
2022-09-14T15:19:12.373Z,94179.50
2022-09-14T15:21:41.308Z,94192.59
2022-09-14T15:24:09.758Z,94199.81
2022-09-14T15:26:37.242Z,94215.34
2022-09-14T15:29:09.621Z,94196.75
2022-09-14T15:31:36.689Z,94202.19
2022-09-14T15:34:04.670Z,94203.63
2022-09-14T15:36:36.237Z,94212.13
2022-09-14T15:39:04.863Z,94208.97
2022-09-14T15:41:31.453Z,94204.31
2022-09-14T15:43:58.940Z,94186.97
2022-09-14T15:46:27.069Z,94200.44
2022-09-14T15:48:53.631Z,94208.50
2022-09-14T15:51:20.561Z,94205.09
2022-09-14T15:53:48.001Z,94207.94
2022-09-14T15:56:16.215Z,94215.84
2022-09-14T15:58:47.841Z,94207.16
2022-09-14T16:01:18.017Z,94212.16
2022-09-14T16:03:44.712Z,94226.22
2022-09-14T16:06:13.855Z,94216.41
2022-09-14T16:08:41.604Z,94206.25
2022-09-14T16:11:18.058Z,94207.97
2022-09-14T16:13:45.167Z,94195.84
2022-09-14T16:16:15.152Z,94201.97
2022-09-14T16:18:44.792Z,94203.31
2022-09-14T16:21:16.927Z,94194.22
2022-09-14T16:23:46.787Z,94194.09
2022-09-14T16:26:16.825Z,94203.88
2022-09-14T16:28:47.032Z,94194.38
2022-09-14T16:31:16.011Z,94196.22
2022-09-14T16:33:46.287Z,94187.75
2022-09-14T16:36:16.348Z,94196.66
2022-09-14T16:38:43.855Z,94199.16
2022-09-14T16:41:12.539Z,94195.06
2022-09-14T16:43:40.145Z,94189.38
2022-09-14T16:46:13.161Z,94182.50
2022-09-14T16:48:42.134Z,94188.44
2022-09-14T16:51:10.173Z,94191.38
2022-09-14T16:53:39.530Z,94186.81
2022-09-14T16:56:15.325Z,94195.44
2022-09-14T16:58:43.255Z,94193.81
2022-09-14T17:01:13.202Z,94185.81
2022-09-14T17:03:41.497Z,94181.97
2022-09-14T17:06:11.536Z,94172.84
2022-09-14T17:08:43.770Z,94186.44
2022-09-14T17:11:12.336Z,94192.31
2022-09-14T17:13:39.752Z,94189.59
2022-09-14T17:16:11.776Z,94188.47
2022-09-14T17:18:40.230Z,94186.94
2022-09-14T17:21:10.315Z,94195.00
2022-09-14T17:23:37.038Z,94180.59
2022-09-14T17:26:05.662Z,94168.88
2022-09-14T17:28:34.194Z,94175.25
2022-09-14T17:31:03.070Z,94187.69
2022-09-14T17:33:31.816Z,94187.53
2022-09-14T17:35:59.650Z,94198.44
2022-09-14T17:38:28.723Z,94197.19
2022-09-14T17:41:05.164Z,94193.91
2022-09-14T17:43:35.906Z,94188.47
2022-09-14T17:46:03.713Z,94181.16
2022-09-14T17:48:36.070Z,94186.63
2022-09-14T17:51:29.652Z,94187.03
2022-09-14T17:53:58.203Z,94192.47
2022-09-14T17:56:27.730Z,94191.25
2022-09-14T17:59:04.278Z,94189.38
2022-09-14T18:01:31.811Z,94198.28
2022-09-14T18:04:01.536Z,94196.81
2022-09-14T18:06:32.551Z,94189.41
2022-09-14T18:09:03.523Z,94198.56
2022-09-14T18:11:30.326Z,94199.50
2022-09-14T18:13:57.238Z,94200.69
2022-09-14T18:16:25.472Z,94208.13
2022-09-14T18:18:52.355Z,94208.47
2022-09-14T18:21:19.625Z,94213.59
2022-09-14T18:23:50.628Z,94215.56
2022-09-14T18:26:17.943Z,94206.63
2022-09-14T18:28:45.468Z,94197.75
2022-09-14T18:31:15.929Z,94194.56
2022-09-14T18:34:00.215Z,94191.88
2022-09-14T18:36:29.467Z,94194.13
2022-09-14T18:38:57.689Z,94190.06
2022-09-14T18:41:25.777Z,94181.41
2022-09-14T18:43:53.595Z,94172.06
2022-09-14T18:46:25.744Z,94170.81
2022-09-14T18:48:57.932Z,94165.00
2022-09-14T18:51:24.857Z,94159.69
2022-09-14T18:54:03.724Z,94149.03
2022-09-14T18:56:33.515Z,94148.78
2022-09-14T18:59:01.495Z,94149.78
2022-09-14T19:01:28.435Z,94153.09
2022-09-14T19:03:56.027Z,94151.94
2022-09-14T19:06:23.098Z,94144.09
2022-09-14T19:08:50.260Z,94149.75
2022-09-14T19:11:20.457Z,94146.13
2022-09-14T19:13:47.941Z,94152.16
2022-09-14T19:16:17.438Z,94149.56
2022-09-14T19:18:46.267Z,94157.75
2022-09-14T19:21:23.349Z,94162.50
2022-09-14T19:23:57.555Z,94172.09
2022-09-14T19:26:24.403Z,94179.09
2022-09-14T19:28:51.068Z,94174.91
2022-09-14T19:31:22.328Z,94176.22
2022-09-14T19:33:49.382Z,94173.97
2022-09-14T19:36:20.100Z,94177.22
2022-09-14T19:38:47.865Z,94175.69
2022-09-14T19:41:15.554Z,94175.69
2022-09-14T19:43:42.541Z,94175.41
2022-09-14T19:46:11.837Z,94171.94
2022-09-14T19:48:39.004Z,94179.97
2022-09-14T19:51:08.474Z,94179.19
2022-09-14T19:53:39.744Z,94178.09
2022-09-14T19:56:08.628Z,94179.41
2022-09-14T19:58:40.744Z,94175.41
2022-09-14T20:01:08.113Z,94168.28
2022-09-14T20:03:36.833Z,94178.16
2022-09-14T20:06:11.691Z,94189.75
2022-09-14T20:08:38.619Z,94191.66
2022-09-14T20:11:07.634Z,94206.50
2022-09-14T20:13:35.257Z,94202.53
2022-09-14T20:16:13.239Z,94211.03
2022-09-14T20:18:41.388Z,94205.00
2022-09-14T20:21:13.418Z,94212.81
2022-09-14T20:23:57.975Z,94209.38
2022-09-14T20:26:29.222Z,94210.38
2022-09-14T20:28:57.507Z,94207.75
2022-09-14T20:31:24.737Z,94204.38
2022-09-14T20:33:51.933Z,94208.47
2022-09-14T20:36:20.941Z,94203.88
2022-09-14T20:38:52.107Z,94209.84
2022-09-14T20:41:18.684Z,94204.63
2022-09-14T20:43:49.540Z,94205.50
2022-09-14T20:46:20.946Z,94211.72
2022-09-14T20:48:48.860Z,94214.19
2022-09-14T20:51:20.532Z,94211.59
2022-09-14T20:54:04.342Z,94196.22
2022-09-14T20:56:34.014Z,94195.69
2022-09-14T20:59:02.858Z,94194.13
2022-09-14T21:01:32.650Z,94199.38
2022-09-14T21:04:09.068Z,94197.63
2022-09-14T21:06:38.843Z,94191.53
2022-09-14T21:09:07.503Z,94197.53
2022-09-14T21:11:35.171Z,94202.09
2022-09-14T21:14:01.906Z,94202.88
2022-09-14T21:16:34.875Z,94201.84
2022-09-14T21:19:03.672Z,94200.88
2022-09-14T21:21:30.827Z,94209.06
2022-09-14T21:23:59.068Z,94209.44
2022-09-14T21:26:27.933Z,94222.84
2022-09-14T21:28:59.615Z,94220.63
2022-09-14T21:31:29.806Z,94221.94
2022-09-14T21:33:59.903Z,94212.53
2022-09-14T21:36:29.388Z,94219.56
2022-09-14T21:38:59.725Z,94226.38
2022-09-14T21:41:29.623Z,94227.97
2022-09-14T21:43:58.157Z,94236.97
2022-09-14T21:46:25.797Z,94235.38
2022-09-14T21:48:54.004Z,94237.56
2022-09-14T21:51:23.517Z,94237.19
2022-09-14T21:53:57.497Z,94228.59
2022-09-14T21:56:25.975Z,94230.72
2022-09-14T21:58:55.256Z,94227.97
2022-09-14T22:01:23.000Z,94237.66
2022-09-14T22:03:51.480Z,94247.06
2022-09-14T22:06:20.086Z,94243.09
2022-09-14T22:08:47.380Z,94246.84
2022-09-14T22:11:22.790Z,94247.84
2022-09-14T22:13:54.376Z,94257.41
2022-09-14T22:16:21.911Z,94260.03
2022-09-14T22:18:53.173Z,94244.16
2022-09-14T22:21:21.482Z,94253.00
2022-09-14T22:23:53.529Z,94255.69
2022-09-14T22:26:20.862Z,94243.72
2022-09-14T22:28:49.441Z,94250.75
2022-09-14T22:31:19.225Z,94245.59
2022-09-14T22:33:46.648Z,94244.03
2022-09-14T22:36:15.313Z,94254.25
2022-09-14T22:38:42.703Z,94243.84
2022-09-14T22:41:12.251Z,94254.47
2022-09-14T22:43:42.418Z,94256.78
2022-09-14T22:46:09.642Z,94265.66
2022-09-14T22:48:37.652Z,94266.31
2022-09-14T22:51:06.838Z,94263.91
2022-09-14T22:53:34.273Z,94260.50
2022-09-14T22:56:10.662Z,94250.44
2022-09-14T22:58:37.916Z,94254.03
2022-09-14T23:01:11.615Z,94250.63
2022-09-14T23:03:38.662Z,94240.00
2022-09-14T23:06:06.000Z,94240.38
2022-09-14T23:08:35.934Z,94249.09
2022-09-14T23:11:05.241Z,94246.03
2022-09-14T23:13:35.682Z,94249.81
2022-09-14T23:16:08.833Z,94251.19
2022-09-14T23:18:35.419Z,94252.03
2022-09-14T23:21:03.685Z,94254.66
2022-09-14T23:23:30.627Z,94252.00
2022-09-14T23:26:03.707Z,94256.38
2022-09-14T23:28:30.352Z,94248.38
2022-09-14T23:30:58.478Z,94246.00
2022-09-14T23:33:26.048Z,94246.97
2022-09-14T23:35:52.794Z,94248.56
2022-09-14T23:38:22.425Z,94245.31
2022-09-14T23:40:52.181Z,94238.78
2022-09-14T23:43:19.777Z,94251.59
2022-09-14T23:45:47.668Z,94244.81
2022-09-14T23:48:15.499Z,94242.38
2022-09-14T23:50:42.857Z,94245.00
2022-09-14T23:53:09.395Z,94248.25
2022-09-14T23:55:36.847Z,94241.59
2022-09-14T23:58:04.114Z,94243.09
